Time;durP1;ratioP1;P1;durP2;ratioP2;P2;SDS_P1;SDS_P2;PMS_P1;PMS_P2;Temp;Humidity;BMP_temperature;BMP_pressure;BME280_temperature;BME280_humidity;BME280_pressure;Samples;Min_cycle;Max_cycle;Signal;HPM_P1;HPM_P2
2023/07/26 00:01:52;;;;;;;;;;;13.20;99.90;;;;;;5033381;28;19929;-65
2023/07/26 00:04:19;;;;;;;;;;;13.30;99.90;;;;;;5037246;28;20014;-65
2023/07/26 00:06:46;;;;;;;;;;;13.20;99.90;;;;;;5035681;28;19925;-65
2023/07/26 00:09:13;;;;;;;;;;;13.20;99.90;;;;;;5052380;28;19928;-65
2023/07/26 00:11:39;;;;;;;;;;;13.20;99.90;;;;;;5054119;28;19928;-65
2023/07/26 00:14:06;;;;;;;;;;;13.20;99.90;;;;;;5038314;28;19924;-65
2023/07/26 00:16:34;;;;;;;;;;;13.20;99.90;;;;;;5036443;28;19974;-65
2023/07/26 00:19:01;;;;;;;;;;;13.10;99.90;;;;;;5055519;28;20017;-64
2023/07/26 00:21:28;;;;;;;;;;;13.10;99.90;;;;;;5037138;28;19936;-65
2023/07/26 00:23:55;;;;;;;;;;;13.10;99.90;;;;;;5053836;28;19932;-65
2023/07/26 00:26:21;;;;;;;;;;;13.10;99.90;;;;;;5052588;28;19943;-63
2023/07/26 00:28:48;;;;;;;;;;;13.10;99.90;;;;;;5054491;28;20299;-64
2023/07/26 00:31:15;;;;;;;;;;;13.10;99.90;;;;;;5053035;28;20468;-64
2023/07/26 00:33:43;;;;;;;;;;;13.10;99.90;;;;;;5054492;28;19928;-64
2023/07/26 00:36:10;;;;;;;;;;;13.10;99.90;;;;;;5054136;28;19940;-63
2023/07/26 00:38:37;;;;;;;;;;;13.10;99.90;;;;;;5034966;28;19936;-64
2023/07/26 00:41:05;;;;;;;;;;;13.10;99.90;;;;;;5035102;28;19928;-64
2023/07/26 00:43:32;;;;;;;;;;;13.10;99.90;;;;;;5053456;28;20434;-65
2023/07/26 00:45:59;;;;;;;;;;;13.00;99.90;;;;;;5037398;28;20410;-65
2023/07/26 00:48:26;;;;;;;;;;;13.00;99.90;;;;;;5058217;28;19929;-64
2023/07/26 00:50:54;;;;;;;;;;;13.00;99.90;;;;;;5041092;28;19929;-64
2023/07/26 00:53:21;;;;;;;;;;;13.00;99.90;;;;;;5039715;28;20040;-64
2023/07/26 00:55:49;;;;;;;;;;;13.00;99.90;;;;;;5054361;28;19924;-64
2023/07/26 00:58:16;;;;;;;;;;;13.00;99.90;;;;;;5056084;28;19935;-64
2023/07/26 01:00:44;;;;;;;;;;;13.00;99.90;;;;;;5065721;28;19951;-65
2023/07/26 01:03:11;;;;;;;;;;;13.00;99.90;;;;;;5071893;28;19936;-66
2023/07/26 01:05:40;;;;;;;;;;;13.00;99.90;;;;;;5054112;28;20360;-66
2023/07/26 01:08:10;;;;;;;;;;;13.00;99.90;;;;;;5043027;28;19921;-66
2023/07/26 01:10:42;;;;;;;;;;;13.00;99.90;;;;;;5053258;28;19928;-65
2023/07/26 01:13:12;;;;;;;;;;;13.00;99.90;;;;;;5055779;28;20101;-65
2023/07/26 01:15:41;;;;;;;;;;;13.00;99.90;;;;;;5051400;28;19926;-64
2023/07/26 01:18:09;;;;;;;;;;;13.00;99.90;;;;;;5034896;28;19928;-64
2023/07/26 01:20:36;;;;;;;;;;;13.00;99.90;;;;;;5036907;28;19925;-65
2023/07/26 01:23:04;;;;;;;;;;;13.10;99.90;;;;;;5036835;28;20434;-64
2023/07/26 01:25:30;;;;;;;;;;;13.10;99.90;;;;;;5055134;28;19925;-65
2023/07/26 01:27:57;;;;;;;;;;;13.00;99.90;;;;;;5054843;28;19983;-65
2023/07/26 01:30:29;;;;;;;;;;;13.00;99.90;;;;;;5055155;28;19921;-64
2023/07/26 01:32:57;;;;;;;;;;;13.00;99.90;;;;;;5037132;28;20460;-64
2023/07/26 01:35:24;;;;;;;;;;;13.00;99.90;;;;;;5036513;28;20272;-64
2023/07/26 01:37:53;;;;;;;;;;;12.90;99.90;;;;;;5055239;28;19932;-64
2023/07/26 01:40:22;;;;;;;;;;;12.90;99.90;;;;;;5035210;28;19927;-64
2023/07/26 01:42:49;;;;;;;;;;;12.80;99.90;;;;;;5054272;28;19924;-63
2023/07/26 01:45:16;;;;;;;;;;;12.70;99.90;;;;;;5036928;28;20361;-63
2023/07/26 01:47:43;;;;;;;;;;;12.70;99.90;;;;;;5036951;28;19921;-65
2023/07/26 01:50:10;;;;;;;;;;;12.60;99.90;;;;;;5036005;28;20399;-65
2023/07/26 01:52:37;;;;;;;;;;;12.60;99.90;;;;;;5036785;28;20372;-64
2023/07/26 01:55:04;;;;;;;;;;;12.50;99.90;;;;;;5036327;28;19927;-64
2023/07/26 01:57:32;;;;;;;;;;;12.50;99.90;;;;;;5053915;28;19925;-64
2023/07/26 02:00:00;;;;;;;;;;;12.50;99.90;;;;;;5054714;28;19943;-64
2023/07/26 02:02:26;;;;;;;;;;;12.50;99.90;;;;;;5054489;28;19925;-64
2023/07/26 02:04:53;;;;;;;;;;;12.50;99.90;;;;;;5036005;28;19920;-66
2023/07/26 02:07:20;;;;;;;;;;;12.40;99.90;;;;;;5039563;28;19920;-65
2023/07/26 02:09:47;;;;;;;;;;;12.40;99.90;;;;;;5056026;28;20433;-65
2023/07/26 02:12:13;;;;;;;;;;;12.30;99.90;;;;;;5055889;28;19920;-66
2023/07/26 02:14:42;;;;;;;;;;;12.30;99.90;;;;;;5056552;28;19920;-65
2023/07/26 02:17:08;;;;;;;;;;;12.30;99.90;;;;;;5055806;28;19973;-64
2023/07/26 02:19:35;;;;;;;;;;;12.30;99.90;;;;;;5074130;28;19966;-64
2023/07/26 02:22:02;;;;;;;;;;;12.20;99.90;;;;;;5055192;28;20371;-64
2023/07/26 02:24:29;;;;;;;;;;;12.20;99.90;;;;;;5055683;28;19999;-64
2023/07/26 02:26:55;;;;;;;;;;;12.20;99.90;;;;;;5056262;28;19924;-65
2023/07/26 02:29:22;;;;;;;;;;;12.10;99.90;;;;;;5073946;28;19920;-65
2023/07/26 02:31:50;;;;;;;;;;;12.10;99.90;;;;;;5055544;28;19921;-65
2023/07/26 02:34:17;;;;;;;;;;;12.10;99.90;;;;;;5074071;28;19990;-65
2023/07/26 02:36:44;;;;;;;;;;;12.00;99.90;;;;;;5073841;28;19920;-65
2023/07/26 02:39:10;;;;;;;;;;;12.00;99.90;;;;;;5054430;28;20311;-65
2023/07/26 02:41:37;;;;;;;;;;;12.00;99.90;;;;;;5056036;28;19926;-64
2023/07/26 02:44:04;;;;;;;;;;;11.90;99.90;;;;;;5055587;28;19966;-65
2023/07/26 02:46:30;;;;;;;;;;;11.80;99.90;;;;;;5054967;28;19920;-66
2023/07/26 02:48:58;;;;;;;;;;;11.80;99.90;;;;;;5055723;28;19929;-64
2023/07/26 02:51:25;;;;;;;;;;;11.70;99.90;;;;;;5073486;28;19974;-64
2023/07/26 02:53:52;;;;;;;;;;;11.60;99.90;;;;;;5072718;28;20375;-64
2023/07/26 02:56:19;;;;;;;;;;;11.60;99.90;;;;;;5055711;28;19921;-65
2023/07/26 02:58:45;;;;;;;;;;;11.60;99.90;;;;;;5055656;28;20427;-63
2023/07/26 03:01:12;;;;;;;;;;;11.50;99.90;;;;;;5054995;28;20360;-64
2023/07/26 03:03:39;;;;;;;;;;;11.40;99.90;;;;;;5071960;28;19920;-63
2023/07/26 03:06:07;;;;;;;;;;;11.40;99.90;;;;;;5056334;28;20430;-63
2023/07/26 03:08:34;;;;;;;;;;;11.40;99.90;;;;;;5054391;28;19974;-64
2023/07/26 03:11:00;;;;;;;;;;;11.30;99.90;;;;;;5035493;28;19928;-64
2023/07/26 03:13:27;;;;;;;;;;;11.30;99.90;;;;;;5052018;28;19935;-64
2023/07/26 03:15:54;;;;;;;;;;;11.30;99.90;;;;;;5036395;28;19935;-64
2023/07/26 03:18:21;;;;;;;;;;;11.30;99.90;;;;;;5054533;28;20380;-63
2023/07/26 03:20:48;;;;;;;;;;;11.20;99.90;;;;;;5054797;28;19928;-64
2023/07/26 03:23:16;;;;;;;;;;;11.20;99.90;;;;;;5038691;28;19931;-65
2023/07/26 03:25:42;;;;;;;;;;;11.20;99.90;;;;;;5036794;28;19929;-65
2023/07/26 03:28:09;;;;;;;;;;;11.30;99.90;;;;;;5036301;28;19925;-64
2023/07/26 03:30:36;;;;;;;;;;;11.10;99.90;;;;;;5053978;28;19978;-65
2023/07/26 03:33:03;;;;;;;;;;;11.10;99.90;;;;;;5053927;28;19921;-65
2023/07/26 03:35:29;;;;;;;;;;;11.10;99.90;;;;;;5035331;28;19928;-65
2023/07/26 03:37:56;;;;;;;;;;;11.10;99.90;;;;;;5035513;28;19928;-65
2023/07/26 03:40:24;;;;;;;;;;;11.10;99.90;;;;;;5045972;28;19928;-64
2023/07/26 03:42:51;;;;;;;;;;;11.30;99.90;;;;;;5054089;28;20387;-64
2023/07/26 03:45:18;;;;;;;;;;;10.30;99.90;;;;;;5036713;28;19927;-65
2023/07/26 03:47:44;;;;;;;;;;;11.30;99.90;;;;;;5060663;28;19920;-62
2023/07/26 03:50:11;;;;;;;;;;;11.40;99.90;;;;;;5060215;28;19928;-63
2023/07/26 03:52:38;;;;;;;;;;;11.60;99.90;;;;;;5063805;28;19973;-64
2023/07/26 03:55:05;;;;;;;;;;;11.70;99.90;;;;;;5062909;28;20015;-64
2023/07/26 03:57:33;;;;;;;;;;;11.70;99.90;;;;;;5068982;28;19932;-64
2023/07/26 04:00:00;;;;;;;;;;;11.80;99.90;;;;;;5047459;28;19954;-64
2023/07/26 04:02:26;;;;;;;;;;;11.80;99.90;;;;;;5069303;28;20379;-64
2023/07/26 04:04:53;;;;;;;;;;;11.90;99.90;;;;;;5051438;28;19978;-63
2023/07/26 04:07:20;;;;;;;;;;;12.00;99.90;;;;;;5047419;28;19920;-64
2023/07/26 04:09:46;;;;;;;;;;;12.00;99.90;;;;;;5068279;28;19970;-64
2023/07/26 04:12:13;;;;;;;;;;;12.00;99.90;;;;;;5051250;28;19924;-64
2023/07/26 04:14:41;;;;;;;;;;;12.10;99.90;;;;;;5052992;28;19920;-64
2023/07/26 04:17:08;;;;;;;;;;;12.10;99.90;;;;;;5067801;28;20401;-64
2023/07/26 04:19:35;;;;;;;;;;;12.20;99.90;;;;;;5052031;28;19926;-64
2023/07/26 04:22:02;;;;;;;;;;;12.20;99.90;;;;;;5050912;28;19920;-64
2023/07/26 04:24:28;;;;;;;;;;;12.20;99.90;;;;;;5068543;28;19920;-65
2023/07/26 04:26:55;;;;;;;;;;;12.20;99.90;;;;;;5049440;28;19935;-65
2023/07/26 04:29:22;;;;;;;;;;;12.30;99.90;;;;;;5068858;28;19931;-64
2023/07/26 04:31:50;;;;;;;;;;;12.30;99.90;;;;;;5067154;28;20346;-63
2023/07/26 04:34:16;;;;;;;;;;;12.40;99.90;;;;;;5051756;28;19939;-64
2023/07/26 04:36:43;;;;;;;;;;;12.40;99.90;;;;;;5067447;28;19943;-67
2023/07/26 04:39:10;;;;;;;;;;;12.40;99.90;;;;;;5067795;28;19928;-68
2023/07/26 04:41:37;;;;;;;;;;;12.40;99.90;;;;;;5048259;28;20394;-63
2023/07/26 04:44:03;;;;;;;;;;;11.80;99.90;;;;;;5051909;28;19924;-63
2023/07/26 04:46:30;;;;;;;;;;;12.50;99.90;;;;;;5068523;28;19928;-65
2023/07/26 04:48:58;;;;;;;;;;;12.60;99.90;;;;;;5072599;28;19924;-64
2023/07/26 04:51:25;;;;;;;;;;;12.60;99.90;;;;;;5070582;28;19928;-64
2023/07/26 04:53:52;;;;;;;;;;;12.60;99.90;;;;;;5072775;28;20346;-65
2023/07/26 04:56:18;;;;;;;;;;;12.70;99.90;;;;;;5073336;28;19928;-65
2023/07/26 04:58:45;;;;;;;;;;;12.70;99.90;;;;;;5052903;28;19931;-63
2023/07/26 05:01:12;;;;;;;;;;;12.80;99.90;;;;;;5052427;28;19924;-65
2023/07/26 05:03:39;;;;;;;;;;;12.90;99.90;;;;;;5068195;28;20523;-64
2023/07/26 05:06:07;;;;;;;;;;;13.10;99.90;;;;;;5055101;28;19943;-64
2023/07/26 05:08:34;;;;;;;;;;;13.20;99.90;;;;;;5039900;28;19928;-65
2023/07/26 05:11:01;;;;;;;;;;;13.30;99.90;;;;;;5053839;28;19927;-65
2023/07/26 05:13:28;;;;;;;;;;;13.30;99.90;;;;;;5070666;28;20003;-66
2023/07/26 05:15:54;;;;;;;;;;;13.40;99.90;;;;;;5054972;28;20042;-65
2023/07/26 05:18:21;;;;;;;;;;;13.50;99.90;;;;;;5054548;28;20326;-66
2023/07/26 05:20:49;;;;;;;;;;;13.50;99.90;;;;;;5056106;28;19921;-64
2023/07/26 05:23:17;;;;;;;;;;;13.60;99.90;;;;;;5071412;28;19920;-65
2023/07/26 05:25:44;;;;;;;;;;;13.60;99.90;;;;;;5074383;28;19920;-65
2023/07/26 05:28:11;;;;;;;;;;;13.70;99.90;;;;;;5051765;28;19924;-64
2023/07/26 05:30:38;;;;;;;;;;;13.70;99.90;;;;;;5055935;28;19932;-65
2023/07/26 05:33:05;;;;;;;;;;;13.80;99.90;;;;;;5055193;28;19924;-64
2023/07/26 05:35:31;;;;;;;;;;;13.90;99.90;;;;;;5073745;28;20037;-64
2023/07/26 05:37:58;;;;;;;;;;;13.90;99.90;;;;;;5072265;28;19928;-65
2023/07/26 05:40:26;;;;;;;;;;;13.90;99.90;;;;;;5055418;28;19924;-65
2023/07/26 05:42:53;;;;;;;;;;;13.90;99.90;;;;;;5053839;28;20360;-65
2023/07/26 05:45:20;;;;;;;;;;;13.80;99.90;;;;;;5055450;28;20292;-64
2023/07/26 05:47:46;;;;;;;;;;;13.90;99.90;;;;;;5072873;28;20366;-66
2023/07/26 05:50:14;;;;;;;;;;;13.90;99.90;;;;;;5053655;28;19970;-65
2023/07/26 05:52:41;;;;;;;;;;;14.00;99.90;;;;;;5056063;28;19926;-65
2023/07/26 05:55:08;;;;;;;;;;;14.10;99.90;;;;;;5057159;28;19927;-64
2023/07/26 05:57:36;;;;;;;;;;;14.10;99.90;;;;;;5054537;28;19927;-65
2023/07/26 06:00:03;;;;;;;;;;;14.00;99.90;;;;;;5074675;28;19927;-65
2023/07/26 06:02:30;;;;;;;;;;;14.00;99.90;;;;;;5073864;28;19966;-64
2023/07/26 06:04:57;;;;;;;;;;;14.00;99.90;;;;;;5056522;28;19928;-65
2023/07/26 06:07:23;;;;;;;;;;;13.80;99.90;;;;;;5074234;28;19935;-64
2023/07/26 06:09:50;;;;;;;;;;;13.80;99.90;;;;;;5073974;28;19926;-65
2023/07/26 06:12:17;;;;;;;;;;;13.80;99.90;;;;;;5056395;28;19924;-65
2023/07/26 06:14:45;;;;;;;;;;;13.80;99.90;;;;;;5056256;28;19921;-64
2023/07/26 06:17:12;;;;;;;;;;;13.80;99.90;;;;;;5073862;28;20300;-64
2023/07/26 06:19:39;;;;;;;;;;;13.70;99.90;;;;;;5074324;28;20319;-65
2023/07/26 06:22:06;;;;;;;;;;;13.80;99.90;;;;;;5074018;28;19924;-65
2023/07/26 06:24:33;;;;;;;;;;;13.80;99.90;;;;;;5072994;28;19921;-63
2023/07/26 06:27:00;;;;;;;;;;;13.80;99.90;;;;;;5053873;28;19928;-64
2023/07/26 06:29:27;;;;;;;;;;;13.90;99.90;;;;;;5055901;28;19927;-64
2023/07/26 06:31:55;;;;;;;;;;;14.10;99.90;;;;;;5072976;28;19929;-64
2023/07/26 06:34:22;;;;;;;;;;;14.30;99.90;;;;;;5073578;28;20284;-64
2023/07/26 06:36:49;;;;;;;;;;;14.60;99.90;;;;;;5073867;28;19926;-65
2023/07/26 06:39:15;;;;;;;;;;;14.90;99.90;;;;;;5054631;28;19928;-65
2023/07/26 06:41:42;;;;;;;;;;;15.30;99.90;;;;;;5055631;28;19920;-65
2023/07/26 06:44:09;;;;;;;;;;;15.50;99.90;;;;;;5073516;28;19926;-65
2023/07/26 06:46:38;;;;;;;;;;;15.80;99.90;;;;;;5073228;28;19967;-65
2023/07/26 06:49:06;;;;;;;;;;;16.00;99.90;;;;;;5071344;28;19927;-63
2023/07/26 06:51:33;;;;;;;;;;;16.20;99.90;;;;;;5054823;28;20384;-65
2023/07/26 06:54:00;;;;;;;;;;;16.40;99.90;;;;;;5073682;28;19939;-65
2023/07/26 06:56:26;;;;;;;;;;;16.30;99.90;;;;;;5055658;28;19921;-65
2023/07/26 06:58:53;;;;;;;;;;;16.80;99.90;;;;;;5054864;28;19920;-64
2023/07/26 07:01:20;;;;;;;;;;;17.10;99.90;;;;;;5055085;28;19928;-64
2023/07/26 07:03:47;;;;;;;;;;;17.10;99.90;;;;;;5055337;28;19965;-65
2023/07/26 07:06:16;;;;;;;;;;;17.20;99.90;;;;;;5054447;28;19927;-64
2023/07/26 07:08:43;;;;;;;;;;;17.30;99.90;;;;;;5072241;28;20384;-65
2023/07/26 07:11:10;;;;;;;;;;;17.10;99.90;;;;;;5073055;28;19926;-65
2023/07/26 07:13:36;;;;;;;;;;;16.80;99.90;;;;;;5054467;28;19920;-65
2023/07/26 07:16:04;;;;;;;;;;;16.70;99.90;;;;;;5073241;28;20007;-65
2023/07/26 07:18:31;;;;;;;;;;;16.40;99.90;;;;;;5055300;28;19920;-65
2023/07/26 07:21:00;;;;;;;;;;;16.20;99.90;;;;;;5070244;28;20164;-65
2023/07/26 07:23:29;;;;;;;;;;;16.60;99.90;;;;;;5054938;28;19928;-65
2023/07/26 07:25:56;;;;;;;;;;;17.60;99.90;;;;;;5072750;28;20380;-66
2023/07/26 07:28:23;;;;;;;;;;;18.20;99.90;;;;;;5054398;28;20356;-65
2023/07/26 07:30:50;;;;;;;;;;;19.00;99.90;;;;;;5054809;28;20265;-66
2023/07/26 07:33:16;;;;;;;;;;;19.30;99.90;;;;;;5054808;28;19924;-66
2023/07/26 07:35:43;;;;;;;;;;;20.10;99.90;;;;;;5054232;28;19920;-66
2023/07/26 07:38:10;;;;;;;;;;;20.40;99.90;;;;;;5072792;28;19920;-66
2023/07/26 07:40:38;;;;;;;;;;;20.80;99.90;;;;;;5054746;28;20299;-64
2023/07/26 07:43:05;;;;;;;;;;;20.70;99.90;;;;;;5071942;28;19920;-65
2023/07/26 07:45:31;;;;;;;;;;;20.70;99.90;;;;;;5054627;28;19928;-64
2023/07/26 07:47:58;;;;;;;;;;;20.80;99.90;;;;;;5054227;28;19927;-64
2023/07/26 07:50:25;;;;;;;;;;;21.20;99.90;;;;;;5054583;28;20418;-64
2023/07/26 07:52:52;;;;;;;;;;;20.60;99.90;;;;;;5054724;28;19921;-65
2023/07/26 07:55:18;;;;;;;;;;;20.90;99.90;;;;;;5071709;28;19924;-65
2023/07/26 07:57:46;;;;;;;;;;;21.10;99.90;;;;;;5072537;28;19927;-64
2023/07/26 08:00:13;;;;;;;;;;;21.10;99.90;;;;;;5070447;28;19930;-65
2023/07/26 08:02:40;;;;;;;;;;;20.90;99.90;;;;;;5053686;28;19958;-65
2023/07/26 08:05:07;;;;;;;;;;;20.80;99.90;;;;;;5054449;28;20318;-65
2023/07/26 08:07:34;;;;;;;;;;;20.70;99.90;;;;;;5054318;28;19921;-65
2023/07/26 08:10:01;;;;;;;;;;;20.90;99.90;;;;;;5053635;28;19927;-65
2023/07/26 08:12:28;;;;;;;;;;;21.10;99.90;;;;;;5053961;28;19927;-65
2023/07/26 08:14:56;;;;;;;;;;;21.50;99.90;;;;;;5072400;28;19920;-65
2023/07/26 08:17:23;;;;;;;;;;;21.50;99.90;;;;;;5072003;28;19920;-64
2023/07/26 08:19:49;;;;;;;;;;;21.60;99.90;;;;;;5055010;28;19935;-65
2023/07/26 08:22:16;;;;;;;;;;;22.30;99.90;;;;;;5058610;28;19924;-64
2023/07/26 08:24:43;;;;;;;;;;;22.00;99.90;;;;;;5075418;28;19927;-66
2023/07/26 08:27:10;;;;;;;;;;;22.40;99.50;;;;;;5076561;28;19931;-65
2023/07/26 08:29:36;;;;;;;;;;;22.60;99.70;;;;;;5074378;28;19927;-65
2023/07/26 08:32:05;;;;;;;;;;;23.00;99.00;;;;;;5075618;28;20334;-65
2023/07/26 08:34:32;;;;;;;;;;;23.40;97.80;;;;;;5056204;28;19953;-64
2023/07/26 08:36:58;;;;;;;;;;;24.30;97.00;;;;;;5057929;28;19928;-65
2023/07/26 08:39:25;;;;;;;;;;;23.90;97.00;;;;;;5076462;28;20033;-64
2023/07/26 08:41:52;;;;;;;;;;;23.90;96.50;;;;;;5057774;28;19920;-65
2023/07/26 08:44:19;;;;;;;;;;;23.60;96.70;;;;;;5075400;28;19927;-64
2023/07/26 08:46:47;;;;;;;;;;;23.60;96.50;;;;;;5076079;28;20273;-64
2023/07/26 08:49:15;;;;;;;;;;;23.50;96.40;;;;;;5057756;28;19920;-65
2023/07/26 08:51:43;;;;;;;;;;;23.30;97.00;;;;;;5072392;28;19920;-65
2023/07/26 08:54:10;;;;;;;;;;;22.80;97.10;;;;;;5057635;28;19940;-64
2023/07/26 08:56:36;;;;;;;;;;;22.90;98.00;;;;;;5057782;28;19927;-65
2023/07/26 08:59:03;;;;;;;;;;;23.00;96.50;;;;;;5057358;28;19935;-65
2023/07/26 09:01:30;;;;;;;;;;;23.20;97.50;;;;;;5057790;28;19924;-66
2023/07/26 09:03:57;;;;;;;;;;;23.40;97.10;;;;;;5057704;28;19928;-65
2023/07/26 09:06:25;;;;;;;;;;;23.10;97.00;;;;;;5074775;28;19921;-66
2023/07/26 09:08:52;;;;;;;;;;;23.70;96.80;;;;;;5057250;28;19924;-66
2023/07/26 09:11:20;;;;;;;;;;;23.40;97.60;;;;;;5056356;28;19931;-65
2023/07/26 09:13:52;;;;;;;;;;;23.50;96.60;;;;;;5074859;28;19939;-65
2023/07/26 09:16:19;;;;;;;;;;;23.60;97.30;;;;;;5055527;28;19924;-65
2023/07/26 09:18:55;;;;;;;;;;;22.90;97.30;;;;;;5075271;28;20291;-66
2023/07/26 09:21:26;;;;;;;;;;;23.30;97.20;;;;;;5074449;28;20006;-66
2023/07/26 09:23:52;;;;;;;;;;;23.40;97.00;;;;;;5075502;28;19943;-65
2023/07/26 09:26:30;;;;;;;;;;;23.40;97.90;;;;;;5056733;28;19978;-65
2023/07/26 09:28:57;;;;;;;;;;;23.00;98.00;;;;;;5073185;28;19921;-65
2023/07/26 09:31:31;;;;;;;;;;;22.90;97.80;;;;;;5056368;28;19932;-65
2023/07/26 09:33:58;;;;;;;;;;;22.80;97.70;;;;;;5074358;28;20383;-64
2023/07/26 09:36:27;;;;;;;;;;;23.00;97.20;;;;;;5072773;28;19920;-64
2023/07/26 09:38:53;;;;;;;;;;;23.70;96.90;;;;;;5074997;28;19920;-64
2023/07/26 09:41:23;;;;;;;;;;;24.00;96.40;;;;;;5056464;28;19985;-65
2023/07/26 09:43:51;;;;;;;;;;;23.60;96.90;;;;;;5074822;28;19969;-65
2023/07/26 09:46:19;;;;;;;;;;;23.80;97.20;;;;;;5074966;28;19929;-65
2023/07/26 09:48:56;;;;;;;;;;;24.30;97.10;;;;;;5074300;28;19921;-65
2023/07/26 09:51:24;;;;;;;;;;;24.40;96.50;;;;;;5054641;28;19974;-64
2023/07/26 09:53:53;;;;;;;;;;;24.20;95.70;;;;;;5074660;28;20366;-65
2023/07/26 09:56:20;;;;;;;;;;;24.70;95.10;;;;;;5056444;28;19928;-65
2023/07/26 09:58:49;;;;;;;;;;;23.80;95.50;;;;;;5074541;28;19924;-65
2023/07/26 10:01:17;;;;;;;;;;;22.70;97.20;;;;;;5074553;28;19920;-65
2023/07/26 10:03:46;;;;;;;;;;;21.60;99.20;;;;;;5056163;28;19920;-66
2023/07/26 10:06:13;;;;;;;;;;;20.60;99.90;;;;;;5074322;28;19927;-65
2023/07/26 10:08:41;;;;;;;;;;;20.90;99.90;;;;;;5073752;28;19929;-64
2023/07/26 10:11:10;;;;;;;;;;;21.00;99.90;;;;;;5074092;28;19942;-66
2023/07/26 10:13:37;;;;;;;;;;;21.00;99.90;;;;;;5056490;28;19958;-64
2023/07/26 10:16:05;;;;;;;;;;;20.70;99.90;;;;;;5073613;28;20445;-65
2023/07/26 10:18:31;;;;;;;;;;;20.20;99.90;;;;;;5074169;28;19929;-64
2023/07/26 10:21:01;;;;;;;;;;;20.20;99.90;;;;;;5055125;28;20380;-64
2023/07/26 10:23:29;;;;;;;;;;;20.20;99.90;;;;;;5073403;28;19927;-64
2023/07/26 10:25:56;;;;;;;;;;;20.30;99.90;;;;;;5074106;28;20295;-65
2023/07/26 10:28:24;;;;;;;;;;;20.70;99.90;;;;;;5055443;28;19920;-65
2023/07/26 10:30:52;;;;;;;;;;;21.40;99.90;;;;;;5073119;28;19921;-65
2023/07/26 10:33:19;;;;;;;;;;;21.70;99.90;;;;;;5073905;28;20299;-66
2023/07/26 10:35:46;;;;;;;;;;;21.70;99.70;;;;;;5055990;28;19921;-65
2023/07/26 10:38:15;;;;;;;;;;;21.70;99.90;;;;;;5072998;28;19928;-65
2023/07/26 10:40:43;;;;;;;;;;;22.40;99.90;;;;;;5055999;28;20398;-65
2023/07/26 10:43:18;;;;;;;;;;;23.00;99.50;;;;;;5072836;28;19924;-65
2023/07/26 10:45:46;;;;;;;;;;;24.00;98.50;;;;;;5055067;28;19970;-66
2023/07/26 10:48:14;;;;;;;;;;;23.60;96.10;;;;;;5073695;28;19920;-66
2023/07/26 10:50:41;;;;;;;;;;;23.40;95.80;;;;;;5055174;28;20392;-65
2023/07/26 10:53:26;;;;;;;;;;;22.80;96.20;;;;;;5055571;28;19978;-65
2023/07/26 10:55:53;;;;;;;;;;;22.20;96.90;;;;;;5055420;28;20311;-65
2023/07/26 10:58:20;;;;;;;;;;;21.70;98.00;;;;;;5072880;28;19924;-65
2023/07/26 11:00:48;;;;;;;;;;;21.30;98.10;;;;;;5071208;28;19924;-65
2023/07/26 11:03:14;;;;;;;;;;;20.00;99.90;;;;;;5055599;28;19924;-65
2023/07/26 11:05:54;;;;;;;;;;;19.10;99.90;;;;;;5055059;28;19920;-66
2023/07/26 11:08:21;;;;;;;;;;;18.30;99.90;;;;;;5071749;28;19924;-65
2023/07/26 11:10:50;;;;;;;;;;;17.40;99.90;;;;;;5055078;28;19928;-64
2023/07/26 11:13:18;;;;;;;;;;;16.80;99.90;;;;;;5072427;28;19921;-65
2023/07/26 11:15:45;;;;;;;;;;;16.20;99.90;;;;;;5072987;28;20321;-65
2023/07/26 11:18:14;;;;;;;;;;;16.10;99.90;;;;;;5072829;28;19928;-65
2023/07/26 11:20:44;;;;;;;;;;;15.60;99.90;;;;;;5072616;28;19924;-64
2023/07/26 11:23:17;;;;;;;;;;;15.50;99.90;;;;;;5073081;28;19928;-65
2023/07/26 11:25:45;;;;;;;;;;;15.40;99.90;;;;;;5073006;28;19924;-66
2023/07/26 11:28:12;;;;;;;;;;;15.40;99.90;;;;;;5054343;28;19921;-65
2023/07/26 11:30:39;;;;;;;;;;;15.30;99.90;;;;;;5054795;28;19927;-65
2023/07/26 11:33:06;;;;;;;;;;;15.30;99.90;;;;;;5072147;28;20033;-64
2023/07/26 11:35:41;;;;;;;;;;;15.40;99.90;;;;;;5072836;28;19920;-64
2023/07/26 11:38:08;;;;;;;;;;;15.40;99.90;;;;;;5053522;28;19920;-64
2023/07/26 11:40:39;;;;;;;;;;;15.60;99.90;;;;;;5071970;28;19974;-65
2023/07/26 11:43:06;;;;;;;;;;;15.70;99.90;;;;;;5054775;28;19920;-65
2023/07/26 11:45:33;;;;;;;;;;;16.20;99.90;;;;;;5072773;28;19925;-65
2023/07/26 11:48:00;;;;;;;;;;;17.30;99.90;;;;;;5053814;28;19920;-66
2023/07/26 11:50:27;;;;;;;;;;;18.40;99.90;;;;;;5054841;28;20352;-66
2023/07/26 11:53:05;;;;;;;;;;;19.20;99.90;;;;;;5072407;28;19921;-67
2023/07/26 11:55:32;;;;;;;;;;;20.20;99.90;;;;;;5069878;28;19974;-64
2023/07/26 11:58:03;;;;;;;;;;;20.80;99.90;;;;;;5054567;28;19921;-64
2023/07/26 12:00:30;;;;;;;;;;;21.30;99.90;;;;;;5072668;28;19920;-65
2023/07/26 12:02:57;;;;;;;;;;;21.90;99.90;;;;;;5054113;28;19920;-65
2023/07/26 12:05:25;;;;;;;;;;;22.60;99.90;;;;;;5072475;28;19921;-65
2023/07/26 12:07:53;;;;;;;;;;;22.50;99.90;;;;;;5072185;28;19921;-65
2023/07/26 12:10:28;;;;;;;;;;;22.60;99.90;;;;;;5071952;28;19920;-64
2023/07/26 12:12:55;;;;;;;;;;;23.30;99.90;;;;;;5054246;28;19920;-65
2023/07/26 12:15:23;;;;;;;;;;;24.10;99.90;;;;;;5071893;28;19924;-66
2023/07/26 12:17:59;;;;;;;;;;;24.10;99.90;;;;;;5072164;28;19928;-66
2023/07/26 12:20:27;;;;;;;;;;;24.30;99.90;;;;;;5054551;28;19924;-66
2023/07/26 12:22:55;;;;;;;;;;;24.60;99.90;;;;;;5071788;28;19920;-66
2023/07/26 12:25:22;;;;;;;;;;;23.70;99.90;;;;;;5054291;28;19935;-65
2023/07/26 12:27:53;;;;;;;;;;;23.30;99.90;;;;;;5072230;28;20332;-65
2023/07/26 12:30:19;;;;;;;;;;;22.60;99.90;;;;;;5053942;28;19977;-65
2023/07/26 12:32:46;;;;;;;;;;;22.20;99.90;;;;;;5053989;28;19981;-66
2023/07/26 12:35:20;;;;;;;;;;;21.70;99.90;;;;;;5072381;28;19924;-65
2023/07/26 12:37:49;;;;;;;;;;;21.80;99.90;;;;;;5053577;28;20295;-64
2023/07/26 12:40:17;;;;;;;;;;;22.70;99.90;;;;;;5054267;28;19927;-67
2023/07/26 12:42:43;;;;;;;;;;;22.80;99.90;;;;;;5071974;28;20380;-66
2023/07/26 12:45:12;;;;;;;;;;;22.70;99.90;;;;;;5071278;28;19920;-65
2023/07/26 12:47:39;;;;;;;;;;;22.60;99.90;;;;;;5054258;28;20291;-66
2023/07/26 12:50:06;;;;;;;;;;;22.60;99.90;;;;;;5072217;28;20011;-66
2023/07/26 12:52:37;;;;;;;;;;;22.30;99.90;;;;;;5071306;28;19927;-65
2023/07/26 12:55:05;;;;;;;;;;;22.00;99.90;;;;;;5054227;28;19993;-64
2023/07/26 12:57:32;;;;;;;;;;;21.80;99.90;;;;;;5070935;28;20286;-65
2023/07/26 12:59:58;;;;;;;;;;;21.50;99.90;;;;;;5071829;28;19925;-65
2023/07/26 13:02:27;;;;;;;;;;;22.10;99.90;;;;;;5071911;28;19920;-64
2023/07/26 13:04:54;;;;;;;;;;;23.20;99.90;;;;;;5071283;28;20338;-64
2023/07/26 13:07:20;;;;;;;;;;;24.00;99.90;;;;;;5074506;28;20399;-65
2023/07/26 13:09:47;;;;;;;;;;;24.80;99.90;;;;;;5057693;28;20023;-64
2023/07/26 13:12:14;;;;;;;;;;;25.10;98.50;;;;;;5074841;28;19921;-65
2023/07/26 13:14:40;;;;;;;;;;;24.70;97.90;;;;;;5057501;28;19966;-65
2023/07/26 13:17:07;;;;;;;;;;;24.20;97.70;;;;;;5075550;28;19927;-65
2023/07/26 13:19:35;;;;;;;;;;;23.80;98.30;;;;;;5056908;28;20021;-65
2023/07/26 13:22:02;;;;;;;;;;;23.50;98.50;;;;;;5075368;28;19924;-65
2023/07/26 13:24:29;;;;;;;;;;;23.60;99.60;;;;;;5075047;28;20334;-65
2023/07/26 13:26:56;;;;;;;;;;;23.50;98.10;;;;;;5074468;28;20304;-65
2023/07/26 13:29:22;;;;;;;;;;;23.90;98.10;;;;;;5072731;28;20376;-65
2023/07/26 13:31:49;;;;;;;;;;;23.80;97.30;;;;;;5075239;28;19921;-64
2023/07/26 13:34:16;;;;;;;;;;;24.10;97.90;;;;;;5054116;28;19921;-65
2023/07/26 13:36:44;;;;;;;;;;;24.00;97.20;;;;;;5057165;28;19920;-65
2023/07/26 13:39:11;;;;;;;;;;;24.40;98.20;;;;;;5074896;28;19920;-65
2023/07/26 13:41:38;;;;;;;;;;;25.10;97.00;;;;;;5074274;28;19920;-66
2023/07/26 13:44:04;;;;;;;;;;;25.90;96.10;;;;;;5057027;28;19921;-65
2023/07/26 13:46:31;;;;;;;;;;;26.10;93.80;;;;;;5056108;28;19921;-65
2023/07/26 13:48:58;;;;;;;;;;;26.80;93.60;;;;;;5056889;28;19924;-66
2023/07/26 13:51:24;;;;;;;;;;;27.30;92.90;;;;;;5056870;28;19970;-66
2023/07/26 13:53:52;;;;;;;;;;;27.60;92.40;;;;;;5073895;28;19925;-66
2023/07/26 13:56:19;;;;;;;;;;;27.50;90.70;;;;;;5074531;28;19921;-65
2023/07/26 13:58:46;;;;;;;;;;;27.50;92.00;;;;;;5056742;28;19966;-65
2023/07/26 14:01:12;;;;;;;;;;;26.90;91.50;;;;;;5073977;28;19920;-66
2023/07/26 14:03:39;;;;;;;;;;;26.90;91.70;;;;;;5056663;28;19976;-65
2023/07/26 14:06:06;;;;;;;;;;;27.30;91.50;;;;;;5056697;28;20335;-65
2023/07/26 14:08:33;;;;;;;;;;;27.30;92.00;;;;;;5073466;28;19925;-64
2023/07/26 14:11:02;;;;;;;;;;;27.30;91.40;;;;;;5074632;28;19995;-65
2023/07/26 14:13:29;;;;;;;;;;;26.80;90.30;;;;;;5074142;28;20435;-65
2023/07/26 14:15:55;;;;;;;;;;;26.10;90.80;;;;;;5055610;28;19927;-65
2023/07/26 14:18:22;;;;;;;;;;;26.00;90.90;;;;;;5056311;28;19965;-65